Terminal Aerodrome Forecast
Issued by NWS Green Bay, WI

Home | Current Version | Previous Version | Graphics & Text | Print | Product List | Glossary On
Versions: 1 2 3 4 5 6 7 8 9 10 11 12 13 14 15 16 17 18 19 20 21 22 23 24 25 26 27 28 29 30 31 32 33 34 35 36 37 38
496
FTUS43 KGRB 261734
TAFGRB
TAF
KGRB 261734Z 2618/2718 29013G23KT P6SM VCSH OVC035
      TEMPO 2618/2620 6SM -SHRA
     FM262000 33012G21KT P6SM VCSH SCT035 BKN050
      TEMPO 2620/2624 -SHRA
     FM270000 32007KT P6SM BKN200
     FM270200 27005KT P6SM FEW250=

USA.gov is the U.S. government's official web portal to all federal, state and local government web resources and services.